New Baden, Illinois
Current Conditions -  °F | °C
As of 2:58 AM on Friday 19 Dec 2014 (Local Time) from KBLV Reporting Station
Clear Clear  
Wind Chill: 28°   Ceiling: Unl
Heat Index: 28°   Visibility: 10mi
Dew Point: 27°   Wind: 0mph
Humidity: 94%   Direction: NA
Pressure: 30.29"   Gusts: NA
Location:  38.54°N, 89.7°W
Report Text: KBLV 190858Z AUTO 00000KT 10SM CLR M02/M03 A3029 RMK AO2 SLP265 T10211029 55000
Loading
Personal Weather Stations






























Interactive Weather Map New forecast layout! Learn more

10-Day Weather Forecast

Advertisements
Track Severe Weather on mobile